Time;durP1;ratioP1;P1;durP2;ratioP2;P2;SDS_P1;SDS_P2;PMS_P1;PMS_P2;Temp;Humidity;BMP_temperature;BMP_pressure;BME280_temperature;BME280_humidity;BME280_pressure;Samples;Min_cycle;Max_cycle;Signal;HPM_P1;HPM_P2
2023/08/29 00:01:58;;;;;;;18.95;6.00;;;;;;;;;;4965329;28;20434;-77
2023/08/29 00:04:26;;;;;;;20.70;6.50;;;;;;;;;;4973966;28;20424;-77
2023/08/29 00:06:53;;;;;;;21.90;6.65;;;;;;;;;;4988757;28;20430;-77
2023/08/29 00:09:20;;;;;;;18.85;6.15;;;;;;;;;;4986028;28;20424;-77
2023/08/29 00:11:46;;;;;;;20.58;5.80;;;;;;;;;;4988882;28;20412;-76
2023/08/29 00:14:13;;;;;;;19.70;5.90;;;;;;;;;;4983890;28;20426;-77
2023/08/29 00:16:40;;;;;;;19.45;6.40;;;;;;;;;;4983794;28;20414;-77
2023/08/29 00:19:06;;;;;;;20.10;6.40;;;;;;;;;;4986916;28;20416;-76
2023/08/29 00:21:34;;;;;;;21.65;7.20;;;;;;;;;;4982612;28;20903;-76
2023/08/29 00:24:03;;;;;;;19.92;6.50;;;;;;;;;;4981427;28;20416;-76
2023/08/29 00:26:29;;;;;;;21.57;7.50;;;;;;;;;;4991854;28;20465;-76
2023/08/29 00:28:56;;;;;;;20.48;6.80;;;;;;;;;;5002376;28;20906;-76
2023/08/29 00:31:23;;;;;;;20.67;7.13;;;;;;;;;;4983034;28;20433;-76
2023/08/29 00:33:50;;;;;;;23.38;7.00;;;;;;;;;;4985967;28;20775;-76
2023/08/29 00:36:16;;;;;;;22.08;7.63;;;;;;;;;;4985960;28;20416;-77
2023/08/29 00:38:44;;;;;;;21.48;7.63;;;;;;;;;;4984705;28;20406;-76
2023/08/29 00:41:13;;;;;;;22.10;7.70;;;;;;;;;;4988080;28;20980;-77
2023/08/29 00:43:39;;;;;;;22.02;7.88;;;;;;;;;;4981941;28;20467;-78
2023/08/29 00:46:09;;;;;;;20.97;7.90;;;;;;;;;;4974883;28;20426;-76
2023/08/29 00:48:37;;;;;;;31.40;16.45;;;;;;;;;;4986199;28;20449;-77
2023/08/29 00:51:04;;;;;;;50.60;32.25;;;;;;;;;;4978416;28;20424;-77
2023/08/29 00:53:32;;;;;;;59.50;38.35;;;;;;;;;;4982055;28;20456;-76
2023/08/29 00:56:00;;;;;;;53.45;31.55;;;;;;;;;;5014244;28;20450;-77
2023/08/29 00:58:27;;;;;;;38.35;20.85;;;;;;;;;;4965583;28;20421;-77
2023/08/29 01:00:54;;;;;;;27.42;12.77;;;;;;;;;;4984204;28;20418;-75
2023/08/29 01:03:21;;;;;;;24.83;10.88;;;;;;;;;;4989757;28;20444;-77
2023/08/29 01:05:48;;;;;;;23.30;10.00;;;;;;;;;;4990169;28;20441;-77
2023/08/29 01:08:15;;;;;;;23.10;9.00;;;;;;;;;;4991276;28;20474;-77
2023/08/29 01:10:45;;;;;;;22.17;8.40;;;;;;;;;;4981840;28;20470;-77
2023/08/29 01:13:18;;;;;;;22.33;8.30;;;;;;;;;;5015350;28;20436;-76
2023/08/29 01:15:48;;;;;;;23.50;8.70;;;;;;;;;;4964678;28;20922;-76
2023/08/29 01:18:15;;;;;;;22.17;8.43;;;;;;;;;;5008321;28;20440;-77
2023/08/29 01:20:42;;;;;;;20.80;7.90;;;;;;;;;;4990217;28;20484;-77
2023/08/29 01:23:12;;;;;;;23.45;9.10;;;;;;;;;;4983866;28;20414;-77
2023/08/29 01:25:46;;;;;;;23.13;9.00;;;;;;;;;;4982458;28;20443;-77
2023/08/29 01:28:14;;;;;;;23.35;8.90;;;;;;;;;;4989476;28;20414;-75
2023/08/29 01:30:41;;;;;;;24.15;8.73;;;;;;;;;;4978792;28;20465;-77
2023/08/29 01:33:09;;;;;;;22.60;8.40;;;;;;;;;;4968752;28;20432;-76
2023/08/29 01:35:41;;;;;;;25.13;8.77;;;;;;;;;;4987485;28;20433;-76
2023/08/29 01:38:08;;;;;;;24.48;8.88;;;;;;;;;;4978105;28;20900;-75
2023/08/29 01:40:34;;;;;;;23.15;8.52;;;;;;;;;;4978685;28;20959;-77
2023/08/29 01:43:01;;;;;;;22.90;8.10;;;;;;;;;;4981475;28;20420;-76
2023/08/29 01:45:30;;;;;;;23.92;9.05;;;;;;;;;;4987620;28;20424;-77
2023/08/29 01:47:57;;;;;;;22.70;9.10;;;;;;;;;;4984099;28;20468;-77
2023/08/29 01:50:27;;;;;;;24.70;9.32;;;;;;;;;;4980287;28;20741;-77
2023/08/29 01:52:54;;;;;;;25.15;9.52;;;;;;;;;;4982448;28;20419;-78
2023/08/29 01:55:21;;;;;;;23.77;9.60;;;;;;;;;;4979077;28;20404;-78
2023/08/29 01:57:49;;;;;;;24.58;10.32;;;;;;;;;;4979644;28;20410;-77
2023/08/29 02:00:16;;;;;;;23.30;9.90;;;;;;;;;;4982143;28;20473;-77
2023/08/29 02:02:44;;;;;;;24.45;9.85;;;;;;;;;;4984481;28;20416;-76
2023/08/29 02:05:11;;;;;;;22.80;9.27;;;;;;;;;;4980829;28;20779;-76
2023/08/29 02:07:37;;;;;;;25.67;9.98;;;;;;;;;;4981323;28;20410;-77
2023/08/29 02:10:05;;;;;;;24.33;10.30;;;;;;;;;;5010186;28;20472;-76
2023/08/29 02:12:31;;;;;;;24.23;9.13;;;;;;;;;;4981093;28;20423;-76
2023/08/29 02:14:59;;;;;;;24.60;10.05;;;;;;;;;;4989071;28;20434;-75
2023/08/29 02:17:27;;;;;;;25.25;10.20;;;;;;;;;;5014070;28;20501;-77
2023/08/29 02:19:55;;;;;;;25.55;9.75;;;;;;;;;;5014294;28;20439;-77
2023/08/29 02:22:21;;;;;;;25.80;10.07;;;;;;;;;;4983711;28;20439;-76
2023/08/29 02:24:48;;;;;;;26.25;10.43;;;;;;;;;;4982825;28;20423;-77
2023/08/29 02:27:15;;;;;;;23.65;10.10;;;;;;;;;;4981901;28;20803;-76
2023/08/29 02:29:41;;;;;;;26.20;10.40;;;;;;;;;;4981257;28;20413;-77
2023/08/29 02:32:08;;;;;;;23.05;10.00;;;;;;;;;;4977800;28;20411;-77
2023/08/29 02:34:35;;;;;;;24.85;10.50;;;;;;;;;;4987051;28;20430;-76
2023/08/29 02:37:03;;;;;;;25.80;11.23;;;;;;;;;;4982107;28;20460;-77
2023/08/29 02:39:30;;;;;;;26.93;11.30;;;;;;;;;;4978271;28;20429;-76
2023/08/29 02:41:57;;;;;;;26.10;10.33;;;;;;;;;;4975058;28;20435;-76
2023/08/29 02:44:25;;;;;;;26.65;10.77;;;;;;;;;;4978572;28;21004;-76
2023/08/29 02:46:52;;;;;;;26.83;11.10;;;;;;;;;;5006013;28;20442;-75
2023/08/29 02:49:19;;;;;;;27.20;11.52;;;;;;;;;;4995865;28;20420;-76
2023/08/29 02:51:45;;;;;;;26.00;10.53;;;;;;;;;;4981941;28;20478;-75
2023/08/29 02:54:13;;;;;;;24.08;10.35;;;;;;;;;;5014363;28;20426;-78
2023/08/29 02:56:40;;;;;;;25.13;10.43;;;;;;;;;;5007903;28;20430;-77
2023/08/29 02:59:07;;;;;;;25.20;10.32;;;;;;;;;;4987728;28;20817;-75
2023/08/29 03:01:33;;;;;;;25.10;10.27;;;;;;;;;;4986601;28;20430;-78
2023/08/29 03:04:00;;;;;;;28.45;11.45;;;;;;;;;;5016122;28;20422;-77
2023/08/29 03:06:27;;;;;;;26.33;11.55;;;;;;;;;;4971066;28;20416;-76
2023/08/29 03:08:54;;;;;;;29.42;12.50;;;;;;;;;;4982609;28;20912;-76
2023/08/29 03:11:22;;;;;;;26.60;11.73;;;;;;;;;;4978711;28;20459;-75
2023/08/29 03:13:48;;;;;;;26.67;11.63;;;;;;;;;;4980342;28;20438;-77
2023/08/29 03:16:17;;;;;;;28.70;12.20;;;;;;;;;;4984777;28;20780;-77
2023/08/29 03:18:46;;;;;;;29.33;12.20;;;;;;;;;;4993338;28;20500;-78
2023/08/29 03:21:13;;;;;;;28.58;12.18;;;;;;;;;;4983796;28;20508;-77
2023/08/29 03:23:39;;;;;;;26.40;11.65;;;;;;;;;;4981563;28;20412;-77
2023/08/29 03:26:06;;;;;;;28.10;11.18;;;;;;;;;;4984901;28;20498;-76
2023/08/29 03:28:38;;;;;;;28.92;12.70;;;;;;;;;;4981675;28;20426;-76
2023/08/29 03:31:08;;;;;;;28.52;12.00;;;;;;;;;;4986002;28;20501;-77
2023/08/29 03:33:36;;;;;;;28.60;11.85;;;;;;;;;;4993692;28;20837;-76
2023/08/29 03:36:03;;;;;;;27.15;11.45;;;;;;;;;;4986988;28;20895;-77
2023/08/29 03:38:29;;;;;;;27.55;12.73;;;;;;;;;;4970820;28;20431;-78
2023/08/29 03:40:56;;;;;;;28.75;11.30;;;;;;;;;;4992242;28;20426;-77
2023/08/29 03:43:25;;;;;;;30.23;11.80;;;;;;;;;;4992218;28;20426;-76
2023/08/29 03:45:57;;;;;;;26.88;11.73;;;;;;;;;;4973028;28;20826;-77
2023/08/29 03:48:24;;;;;;;27.20;11.90;;;;;;;;;;4985781;28;20510;-76
2023/08/29 03:50:55;;;;;;;27.77;11.30;;;;;;;;;;4992201;28;20449;-76
2023/08/29 03:53:21;;;;;;;27.10;10.68;;;;;;;;;;5013060;28;20447;-77
2023/08/29 03:55:49;;;;;;;27.45;12.30;;;;;;;;;;4986311;28;20485;-77
2023/08/29 03:58:16;;;;;;;26.08;11.32;;;;;;;;;;4982798;28;20436;-78
2023/08/29 04:00:42;;;;;;;27.13;11.55;;;;;;;;;;5019452;28;20420;-78
2023/08/29 04:03:11;;;;;;;27.35;10.98;;;;;;;;;;4983604;28;20431;-76
2023/08/29 04:05:39;;;;;;;29.33;11.30;;;;;;;;;;5004021;28;20428;-76
2023/08/29 04:08:06;;;;;;;27.38;11.57;;;;;;;;;;5006934;28;20867;-78
2023/08/29 04:10:38;;;;;;;29.23;12.63;;;;;;;;;;4970370;28;20987;-78
2023/08/29 04:13:06;;;;;;;28.88;12.20;;;;;;;;;;4974180;28;20423;-77
2023/08/29 04:15:33;;;;;;;32.53;13.35;;;;;;;;;;4992017;28;20428;-77
2023/08/29 04:18:00;;;;;;;30.05;12.57;;;;;;;;;;4987052;28;20931;-78
2023/08/29 04:20:28;;;;;;;27.73;11.85;;;;;;;;;;5006151;28;20420;-77
2023/08/29 04:22:55;;;;;;;29.60;12.10;;;;;;;;;;4990782;28;20427;-77
2023/08/29 04:25:22;;;;;;;25.80;11.75;;;;;;;;;;4983156;28;20424;-77
2023/08/29 04:27:50;;;;;;;28.40;12.82;;;;;;;;;;5000405;28;20412;-78
2023/08/29 04:30:17;;;;;;;28.40;12.38;;;;;;;;;;5002835;28;20454;-77
2023/08/29 04:32:44;;;;;;;29.40;11.65;;;;;;;;;;4988799;28;20794;-76
2023/08/29 04:35:11;;;;;;;29.92;12.30;;;;;;;;;;4990813;28;20448;-77
2023/08/29 04:37:39;;;;;;;29.23;11.93;;;;;;;;;;4969440;28;20502;-76
2023/08/29 04:40:06;;;;;;;28.65;12.38;;;;;;;;;;5012778;28;20455;-76
2023/08/29 04:42:34;;;;;;;29.75;12.80;;;;;;;;;;4966530;28;21268;-79
2023/08/29 04:45:05;;;;;;;27.42;12.35;;;;;;;;;;5017812;28;20910;-77
2023/08/29 04:47:33;;;;;;;30.40;13.20;;;;;;;;;;4974402;28;20421;-77
2023/08/29 04:50:00;;;;;;;28.67;12.70;;;;;;;;;;5017096;28;20434;-78
2023/08/29 04:52:27;;;;;;;29.83;14.00;;;;;;;;;;5011467;28;20493;-78
2023/08/29 04:54:56;;;;;;;37.08;19.55;;;;;;;;;;4991550;28;20981;-78
2023/08/29 04:57:23;;;;;;;39.03;20.57;;;;;;;;;;4983716;28;20433;-77
2023/08/29 04:59:49;;;;;;;46.13;25.00;;;;;;;;;;4978109;28;20517;-77
2023/08/29 05:02:17;;;;;;;43.35;24.23;;;;;;;;;;4995773;28;20805;-77
2023/08/29 05:04:44;;;;;;;40.20;20.85;;;;;;;;;;4990120;28;20417;-79
2023/08/29 05:07:11;;;;;;;36.22;18.67;;;;;;;;;;4980928;28;20439;-77
2023/08/29 05:09:37;;;;;;;32.53;15.30;;;;;;;;;;4978415;28;20499;-79
2023/08/29 05:12:10;;;;;;;31.88;14.55;;;;;;;;;;4982594;28;20477;-78
2023/08/29 05:14:37;;;;;;;32.90;15.43;;;;;;;;;;4986336;28;21168;-79
2023/08/29 05:17:04;;;;;;;30.63;12.98;;;;;;;;;;5005766;28;20422;-77
2023/08/29 05:19:32;;;;;;;30.53;13.83;;;;;;;;;;4987675;28;20507;-78
2023/08/29 05:21:59;;;;;;;31.03;14.43;;;;;;;;;;4999293;28;21272;-77
2023/08/29 05:24:26;;;;;;;30.93;13.97;;;;;;;;;;4979055;28;20493;-79
2023/08/29 05:26:53;;;;;;;32.22;14.55;;;;;;;;;;4986155;28;20408;-77
2023/08/29 05:29:23;;;;;;;30.17;14.15;;;;;;;;;;4987439;28;20535;-78
2023/08/29 05:31:49;;;;;;;29.95;14.20;;;;;;;;;;4981488;28;20461;-76
2023/08/29 05:34:16;;;;;;;30.38;13.40;;;;;;;;;;5010137;28;20518;-78
2023/08/29 05:36:43;;;;;;;32.53;13.32;;;;;;;;;;4986051;28;20414;-78
2023/08/29 05:39:10;;;;;;;28.98;12.70;;;;;;;;;;4986985;28;20416;-79
2023/08/29 05:41:37;;;;;;;29.30;12.73;;;;;;;;;;4976781;28;20421;-78
2023/08/29 05:44:03;;;;;;;29.52;13.20;;;;;;;;;;4974044;28;20443;-78
2023/08/29 05:46:33;;;;;;;29.52;12.88;;;;;;;;;;4980217;28;20933;-78
2023/08/29 05:49:00;;;;;;;28.20;13.00;;;;;;;;;;5012146;28;20420;-79
2023/08/29 05:51:27;;;;;;;30.40;13.90;;;;;;;;;;4988638;28;20856;-79
2023/08/29 05:53:56;;;;;;;28.40;12.52;;;;;;;;;;4994830;28;20425;-78
2023/08/29 05:56:23;;;;;;;28.85;13.02;;;;;;;;;;4979230;28;20432;-79
2023/08/29 05:58:49;;;;;;;27.33;12.10;;;;;;;;;;4983553;28;20472;-78
2023/08/29 06:01:16;;;;;;;29.83;13.67;;;;;;;;;;4985391;28;20464;-77
2023/08/29 06:03:44;;;;;;;27.52;12.25;;;;;;;;;;4967350;28;20940;-79
2023/08/29 06:06:11;;;;;;;30.10;13.37;;;;;;;;;;4989041;28;20478;-78
2023/08/29 06:08:40;;;;;;;28.25;12.48;;;;;;;;;;4977861;28;20917;-79
2023/08/29 06:11:06;;;;;;;28.58;12.20;;;;;;;;;;4981887;28;20865;-79
2023/08/29 06:13:33;;;;;;;28.23;12.70;;;;;;;;;;5000707;28;20765;-77
2023/08/29 06:16:01;;;;;;;27.30;12.48;;;;;;;;;;4979569;28;20791;-78
2023/08/29 06:18:28;;;;;;;30.05;12.98;;;;;;;;;;4988343;28;20424;-78
2023/08/29 06:20:57;;;;;;;27.25;11.80;;;;;;;;;;4995494;28;20462;-77
2023/08/29 06:23:26;;;;;;;29.08;12.85;;;;;;;;;;4980288;28;20772;-78
2023/08/29 06:25:54;;;;;;;27.45;12.65;;;;;;;;;;4997657;28;20826;-77
2023/08/29 06:28:21;;;;;;;29.00;12.55;;;;;;;;;;5013998;28;20769;-79
2023/08/29 06:30:48;;;;;;;30.23;12.50;;;;;;;;;;4980413;28;20499;-79
2023/08/29 06:33:14;;;;;;;29.55;13.57;;;;;;;;;;4980947;28;20890;-76
2023/08/29 06:35:42;;;;;;;32.20;13.70;;;;;;;;;;4981730;28;20432;-76
2023/08/29 06:38:11;;;;;;;35.28;15.35;;;;;;;;;;4984272;28;20469;-77
2023/08/29 06:40:37;;;;;;;28.85;14.75;;;;;;;;;;4979716;28;20412;-78
2023/08/29 06:43:04;;;;;;;36.30;16.70;;;;;;;;;;4979044;28;20883;-79
2023/08/29 06:45:31;;;;;;;32.28;15.30;;;;;;;;;;4998444;28;20415;-76
2023/08/29 06:47:58;;;;;;;30.75;13.77;;;;;;;;;;4981496;28;20805;-77
2023/08/29 06:50:26;;;;;;;29.20;13.80;;;;;;;;;;4989608;28;20779;-77
2023/08/29 06:52:53;;;;;;;26.20;12.07;;;;;;;;;;4981340;28;20470;-77
2023/08/29 06:55:21;;;;;;;30.40;12.83;;;;;;;;;;4962590;28;20427;-77
2023/08/29 06:57:47;;;;;;;28.27;12.65;;;;;;;;;;4984364;28;20414;-78
2023/08/29 07:00:16;;;;;;;28.77;13.95;;;;;;;;;;4988201;28;20959;-77
2023/08/29 07:02:43;;;;;;;31.27;14.98;;;;;;;;;;4980334;28;20415;-78
2023/08/29 07:05:10;;;;;;;29.30;14.00;;;;;;;;;;4980320;28;20912;-78
2023/08/29 07:07:38;;;;;;;30.20;14.10;;;;;;;;;;4987471;28;20422;-80
2023/08/29 07:10:05;;;;;;;31.00;13.83;;;;;;;;;;4979274;28;20460;-79
2023/08/29 07:12:33;;;;;;;31.53;14.13;;;;;;;;;;4982423;28;20473;-79
2023/08/29 07:15:00;;;;;;;30.13;14.75;;;;;;;;;;4980764;28;20456;-77
2023/08/29 07:17:28;;;;;;;28.73;13.90;;;;;;;;;;4979917;28;20446;-78
2023/08/29 07:19:56;;;;;;;26.60;12.90;;;;;;;;;;4988965;28;20425;-77
2023/08/29 07:22:23;;;;;;;29.15;13.73;;;;;;;;;;4985970;28;20443;-77
2023/08/29 07:24:50;;;;;;;29.48;12.77;;;;;;;;;;5011510;28;20511;-77
2023/08/29 07:27:17;;;;;;;29.80;13.10;;;;;;;;;;4979903;28;20416;-77
2023/08/29 07:29:45;;;;;;;30.30;13.20;;;;;;;;;;4987062;28;20420;-78
2023/08/29 07:32:12;;;;;;;28.30;14.15;;;;;;;;;;4981313;28;20769;-76
2023/08/29 07:34:39;;;;;;;33.95;14.43;;;;;;;;;;4971755;28;20942;-77
2023/08/29 07:37:07;;;;;;;30.08;14.52;;;;;;;;;;4973595;28;20426;-76
2023/08/29 07:39:34;;;;;;;30.80;14.63;;;;;;;;;;5015124;28;20455;-77
2023/08/29 07:42:02;;;;;;;29.70;14.23;;;;;;;;;;4982455;28;20510;-76
2023/08/29 07:44:30;;;;;;;29.23;14.45;;;;;;;;;;4974665;28;20469;-78
2023/08/29 07:46:58;;;;;;;31.33;14.65;;;;;;;;;;5001707;28;20482;-79
2023/08/29 07:49:28;;;;;;;28.05;13.63;;;;;;;;;;4990287;28;20426;-77
2023/08/29 07:51:55;;;;;;;29.65;14.40;;;;;;;;;;4998004;28;20428;-76
2023/08/29 07:54:22;;;;;;;31.80;15.20;;;;;;;;;;4974635;28;20447;-77
2023/08/29 07:56:48;;;;;;;30.08;14.07;;;;;;;;;;4979450;28;20440;-75
2023/08/29 07:59:16;;;;;;;33.78;14.80;;;;;;;;;;4983660;28;20482;-75
2023/08/29 08:01:43;;;;;;;35.10;16.40;;;;;;;;;;4982178;28;20409;-75
2023/08/29 08:04:11;;;;;;;34.30;17.15;;;;;;;;;;4981362;28;20410;-76
2023/08/29 08:06:39;;;;;;;32.45;16.40;;;;;;;;;;4981272;28;20420;-78
2023/08/29 08:09:07;;;;;;;34.53;17.33;;;;;;;;;;4984331;28;20438;-76
2023/08/29 08:11:35;;;;;;;40.00;18.15;;;;;;;;;;4968341;28;20428;-78
2023/08/29 08:14:01;;;;;;;36.42;19.13;;;;;;;;;;4992416;28;20445;-76
2023/08/29 08:16:28;;;;;;;37.67;19.20;;;;;;;;;;4986313;28;20461;-75
2023/08/29 08:18:55;;;;;;;35.80;17.70;;;;;;;;;;4991189;28;20967;-74
2023/08/29 08:21:23;;;;;;;40.50;19.70;;;;;;;;;;4980389;28;20410;-76
2023/08/29 08:23:50;;;;;;;37.67;18.83;;;;;;;;;;4988806;28;20418;-77
2023/08/29 08:26:17;;;;;;;36.92;18.25;;;;;;;;;;4983743;28;20410;-76
2023/08/29 08:28:44;;;;;;;39.78;19.73;;;;;;;;;;4987528;28;20415;-76
2023/08/29 08:31:11;;;;;;;35.72;17.77;;;;;;;;;;4979807;28;20406;-75
2023/08/29 08:33:40;;;;;;;35.47;18.58;;;;;;;;;;4981005;28;20456;-76
2023/08/29 08:36:06;;;;;;;36.17;17.30;;;;;;;;;;4997389;28;20432;-76
2023/08/29 08:38:34;;;;;;;33.95;16.40;;;;;;;;;;4981886;28;20401;-77
2023/08/29 08:41:01;;;;;;;35.28;17.52;;;;;;;;;;4987363;28;20431;-76
2023/08/29 08:43:30;;;;;;;32.25;16.92;;;;;;;;;;4981336;28;20413;-75
2023/08/29 08:45:58;;;;;;;32.70;16.13;;;;;;;;;;4987817;28;20409;-76
2023/08/29 08:48:26;;;;;;;32.78;15.48;;;;;;;;;;4985609;28;20734;-77
2023/08/29 08:50:54;;;;;;;37.97;16.85;;;;;;;;;;5013657;28;20450;-75
2023/08/29 08:53:22;;;;;;;32.70;15.88;;;;;;;;;;4988047;28;20517;-76
2023/08/29 08:55:50;;;;;;;30.90;15.68;;;;;;;;;;4982105;28;20953;-76
2023/08/29 08:58:18;;;;;;;32.13;15.57;;;;;;;;;;4980924;28;20968;-75
2023/08/29 09:00:45;;;;;;;32.23;15.50;;;;;;;;;;5009195;28;20816;-77
2023/08/29 09:03:12;;;;;;;31.95;15.75;;;;;;;;;;4979254;28;20448;-77
2023/08/29 09:05:39;;;;;;;32.55;15.43;;;;;;;;;;4971894;28;20469;-78
2023/08/29 09:08:06;;;;;;;29.63;14.68;;;;;;;;;;4988868;28;20414;-76
2023/08/29 09:10:35;;;;;;;32.22;15.90;;;;;;;;;;5013162;28;20819;-76
2023/08/29 09:13:03;;;;;;;32.80;15.57;;;;;;;;;;4986702;28;20442;-77
2023/08/29 09:15:32;;;;;;;31.05;14.63;;;;;;;;;;4983156;28;20428;-77
2023/08/29 09:17:58;;;;;;;32.60;14.93;;;;;;;;;;4986977;28;20422;-78
2023/08/29 09:20:28;;;;;;;29.85;14.10;;;;;;;;;;4978811;28;20479;-76
2023/08/29 09:22:55;;;;;;;30.52;14.25;;;;;;;;;;4982579;28;20412;-76
2023/08/29 09:25:23;;;;;;;30.90;14.77;;;;;;;;;;4991428;28;20432;-75
2023/08/29 09:27:50;;;;;;;31.95;14.88;;;;;;;;;;4987295;28;20414;-76
2023/08/29 09:30:19;;;;;;;32.13;16.00;;;;;;;;;;4982306;28;20528;-76
2023/08/29 09:32:46;;;;;;;31.42;15.32;;;;;;;;;;5013848;28;20896;-76
2023/08/29 09:35:16;;;;;;;29.80;15.05;;;;;;;;;;4984383;28;20412;-75
2023/08/29 09:37:46;;;;;;;30.60;15.18;;;;;;;;;;4982334;28;20450;-77
2023/08/29 09:40:17;;;;;;;30.88;15.25;;;;;;;;;;4981921;28;20415;-77
2023/08/29 09:43:04;;;;;;;32.67;15.35;;;;;;;;;;4978780;28;20475;-76
2023/08/29 09:45:33;;;;;;;33.40;16.08;;;;;;;;;;4986458;28;20419;-76
2023/08/29 09:48:00;;;;;;;35.83;16.50;;;;;;;;;;4978432;28;20846;-77
2023/08/29 09:50:28;;;;;;;33.90;15.30;;;;;;;;;;4965535;28;20512;-76
2023/08/29 09:52:56;;;;;;;34.13;15.85;;;;;;;;;;4982211;28;20424;-76
2023/08/29 09:55:23;;;;;;;32.63;15.60;;;;;;;;;;4986146;28;20482;-78
2023/08/29 09:57:50;;;;;;;31.90;15.40;;;;;;;;;;4991857;28;20486;-77
2023/08/29 10:00:17;;;;;;;30.15;13.82;;;;;;;;;;4986867;28;20413;-78
2023/08/29 10:02:46;;;;;;;32.42;14.90;;;;;;;;;;4981274;28;20765;-78
2023/08/29 10:05:15;;;;;;;33.03;14.98;;;;;;;;;;4983562;28;20414;-77
2023/08/29 10:07:43;;;;;;;30.45;14.43;;;;;;;;;;4981706;28;20419;-77
2023/08/29 10:10:10;;;;;;;30.07;13.20;;;;;;;;;;5017598;28;20412;-78
2023/08/29 10:12:38;;;;;;;29.67;14.32;;;;;;;;;;4966014;28;20440;-77
2023/08/29 10:15:06;;;;;;;26.42;11.80;;;;;;;;;;4988348;28;20406;-77
2023/08/29 10:17:34;;;;;;;29.30;13.10;;;;;;;;;;4978507;28;20512;-77
2023/08/29 10:20:10;;;;;;;28.83;11.65;;;;;;;;;;4997415;28;20482;-77
2023/08/29 10:22:37;;;;;;;26.17;11.70;;;;;;;;;;4981867;28;20412;-78
2023/08/29 10:25:05;;;;;;;26.85;11.32;;;;;;;;;;4977143;28;20856;-78
2023/08/29 10:27:33;;;;;;;28.13;11.90;;;;;;;;;;5005153;28;20435;-77
2023/08/29 10:30:00;;;;;;;25.65;11.30;;;;;;;;;;4986858;28;20903;-76
2023/08/29 10:32:27;;;;;;;27.48;11.35;;;;;;;;;;4980970;28;20420;-76
2023/08/29 10:34:55;;;;;;;23.67;9.30;;;;;;;;;;4994908;28;20789;-75
2023/08/29 10:37:25;;;;;;;24.65;9.73;;;;;;;;;;4990057;28;20792;-77
2023/08/29 10:39:52;;;;;;;25.13;9.80;;;;;;;;;;4980878;28;20422;-76
2023/08/29 10:42:18;;;;;;;23.80;8.00;;;;;;;;;;4966758;28;20455;-77
2023/08/29 10:44:46;;;;;;;21.10;6.80;;;;;;;;;;4982240;28;20891;-75
2023/08/29 10:47:23;;;;;;;22.60;6.77;;;;;;;;;;4978060;28;20889;-76
2023/08/29 10:49:56;;;;;;;21.75;6.20;;;;;;;;;;4984180;28;20822;-78
2023/08/29 10:52:33;;;;;;;21.73;6.68;;;;;;;;;;4997434;28;20427;-77
2023/08/29 10:55:03;;;;;;;21.98;7.13;;;;;;;;;;4979447;28;20453;-76
2023/08/29 10:57:30;;;;;;;20.75;7.25;;;;;;;;;;4987904;28;20427;-77
2023/08/29 10:59:58;;;;;;;22.10;7.20;;;;;;;;;;4985253;28;20502;-75
2023/08/29 11:02:26;;;;;;;22.48;7.75;;;;;;;;;;4982821;28;20416;-77
2023/08/29 11:05:09;;;;;;;19.80;6.90;;;;;;;;;;4987693;28;20975;-76
2023/08/29 11:07:38;;;;;;;24.98;7.55;;;;;;;;;;4981658;28;20422;-77
2023/08/29 11:10:13;;;;;;;22.80;7.70;;;;;;;;;;5019251;28;20416;-76
2023/08/29 11:12:59;;;;;;;22.10;7.50;;;;;;;;;;4990590;28;20544;-77
2023/08/29 11:15:41;;;;;;;22.88;8.90;;;;;;;;;;4987856;28;20471;-76
2023/08/29 11:18:20;;;;;;;22.60;8.52;;;;;;;;;;4972422;28;20887;-77
2023/08/29 11:20:47;;;;;;;22.60;8.97;;;;;;;;;;4975742;28;20412;-78
2023/08/29 11:23:15;;;;;;;23.20;8.60;;;;;;;;;;4987531;28;20431;-78
2023/08/29 11:25:42;;;;;;;22.73;8.25;;;;;;;;;;4989399;28;20431;-77
2023/08/29 11:28:08;;;;;;;21.00;7.40;;;;;;;;;;4995465;28;20446;-76
2023/08/29 11:30:36;;;;;;;20.02;7.00;;;;;;;;;;4987595;28;20779;-78
2023/08/29 11:33:11;;;;;;;21.83;7.22;;;;;;;;;;5005314;28;20427;-79
2023/08/29 11:35:38;;;;;;;21.67;7.20;;;;;;;;;;4983167;28;20422;-76
2023/08/29 11:38:05;;;;;;;20.23;6.72;;;;;;;;;;4990304;28;20426;-77
2023/08/29 11:40:36;;;;;;;19.73;6.60;;;;;;;;;;4990511;28;20414;-76
2023/08/29 11:43:23;;;;;;;19.30;6.20;;;;;;;;;;4989629;28;20508;-77
2023/08/29 11:46:11;;;;;;;20.38;6.90;;;;;;;;;;4987853;28;20424;-76
2023/08/29 11:48:38;;;;;;;19.27;5.37;;;;;;;;;;4985490;28;20407;-76
2023/08/29 11:51:06;;;;;;;19.05;5.82;;;;;;;;;;4990471;28;20435;-77
2023/08/29 11:53:35;;;;;;;18.50;5.20;;;;;;;;;;4982238;28;20423;-75
2023/08/29 11:56:04;;;;;;;19.70;5.90;;;;;;;;;;5016370;28;20428;-77
2023/08/29 11:58:31;;;;;;;18.02;5.30;;;;;;;;;;4983221;28;20761;-77
2023/08/29 12:01:00;;;;;;;21.42;7.63;;;;;;;;;;4986706;28;20483;-76
2023/08/29 12:03:27;;;;;;;19.55;6.45;;;;;;;;;;4984956;28;20420;-77
2023/08/29 12:05:57;;;;;;;21.13;7.00;;;;;;;;;;4988610;28;20437;-76
2023/08/29 12:08:37;;;;;;;19.98;7.30;;;;;;;;;;4981384;28;20419;-75
2023/08/29 12:11:09;;;;;;;19.33;6.70;;;;;;;;;;4981670;28;20746;-79
2023/08/29 12:13:37;;;;;;;20.70;7.00;;;;;;;;;;4984863;28;20413;-77
2023/08/29 12:16:13;;;;;;;21.83;7.80;;;;;;;;;;4989990;28;20426;-77
2023/08/29 12:18:42;;;;;;;20.13;6.67;;;;;;;;;;4973845;28;20499;-75
2023/08/29 12:21:13;;;;;;;21.05;7.18;;;;;;;;;;4991703;28;20430;-75
2023/08/29 12:23:42;;;;;;;20.25;7.10;;;;;;;;;;4982649;28;20404;-76
2023/08/29 12:26:10;;;;;;;21.00;7.40;;;;;;;;;;4988985;28;20448;-75
2023/08/29 12:28:37;;;;;;;21.92;7.45;;;;;;;;;;4984449;28;20441;-74
2023/08/29 12:31:04;;;;;;;19.90;6.82;;;;;;;;;;4991927;28;20402;-79
2023/08/29 12:33:32;;;;;;;20.33;7.00;;;;;;;;;;4989007;28;20453;-77
2023/08/29 12:35:59;;;;;;;23.50;7.07;;;;;;;;;;4981143;28;20444;-77
2023/08/29 12:38:30;;;;;;;19.37;7.00;;;;;;;;;;4982124;28;20321;-78
2023/08/29 12:40:57;;;;;;;17.20;5.70;;;;;;;;;;4988772;28;21237;-77
2023/08/29 12:43:26;;;;;;;21.30;5.83;;;;;;;;;;4980041;28;20943;-77
2023/08/29 12:45:53;;;;;;;18.27;5.23;;;;;;;;;;4992911;28;20418;-76
2023/08/29 12:48:26;;;;;;;16.07;4.83;;;;;;;;;;4982928;28;20621;-76
2023/08/29 12:50:53;;;;;;;18.73;6.23;;;;;;;;;;4989642;28;20442;-78
2023/08/29 12:53:20;;;;;;;18.23;4.90;;;;;;;;;;5016547;28;20471;-75
2023/08/29 12:55:47;;;;;;;17.07;4.20;;;;;;;;;;4990875;28;20433;-77
2023/08/29 12:58:13;;;;;;;17.87;5.57;;;;;;;;;;4987829;28;20486;-78
2023/08/29 13:00:42;;;;;;;19.33;5.03;;;;;;;;;;4976193;28;20421;-76
2023/08/29 13:03:09;;;;;;;16.93;4.67;;;;;;;;;;4991504;28;20895;-77
2023/08/29 13:05:36;;;;;;;15.40;3.67;;;;;;;;;;4984698;28;20410;-78
2023/08/29 13:08:05;;;;;;;18.10;3.83;;;;;;;;;;4980087;28;20560;-77
2023/08/29 13:10:32;;;;;;;16.80;4.13;;;;;;;;;;4984805;28;20425;-78
2023/08/29 13:12:59;;;;;;;15.60;3.90;;;;;;;;;;4987278;28;20517;-77
2023/08/29 13:15:26;;;;;;;15.10;2.97;;;;;;;;;;4984221;28;20429;-78
2023/08/29 13:18:11;;;;;;;17.00;3.93;;;;;;;;;;4988294;28;20509;-77
2023/08/29 13:20:38;;;;;;;16.13;3.23;;;;;;;;;;4987078;28;20441;-78
2023/08/29 13:23:05;;;;;;;17.93;3.80;;;;;;;;;;4989949;28;20419;-77
2023/08/29 13:25:32;;;;;;;16.65;3.20;;;;;;;;;;4983563;28;20415;-78
2023/08/29 13:27:59;;;;;;;17.65;3.10;;;;;;;;;;4983472;28;20502;-79
2023/08/29 13:30:25;;;;;;;16.23;2.90;;;;;;;;;;4978911;28;20412;-77
2023/08/29 13:32:53;;;;;;;15.98;2.60;;;;;;;;;;4987543;28;20418;-76
2023/08/29 13:35:21;;;;;;;16.25;2.40;;;;;;;;;;5015631;28;20416;-78
2023/08/29 13:37:48;;;;;;;16.80;2.10;;;;;;;;;;4999684;28;20488;-77
2023/08/29 13:40:15;;;;;;;13.90;2.10;;;;;;;;;;4985822;28;20254;-79
2023/08/29 13:42:42;;;;;;;14.90;2.33;;;;;;;;;;4974145;28;20493;-78
2023/08/29 13:45:08;;;;;;;;;;;;;;;;;;4993364;28;20326;-80
2023/08/29 13:47:35;;;;;;;;;;;;;;;;;;5020446;28;20433;-77
2023/08/29 13:50:02;;;;;;;;;;;;;;;;;;4990883;28;19925;-78
2023/08/29 13:52:30;;;;;;;;;;;;;;;;;;5030782;28;19949;-77
2023/08/29 13:54:57;;;;;;;;;;;;;;;;;;5016901;28;20404;-78
2023/08/29 13:57:25;;;;;;;;;;;;;;;;;;4987440;28;19925;-77
2023/08/29 13:59:52;;;;;;;;;;;;;;;;;;5017287;28;20434;-79
2023/08/29 14:02:18;;;;;;;;;;;;;;;;;;4985185;28;19943;-78
2023/08/29 14:04:46;;;;;;;;;;;;;;;;;;5017773;28;19926;-78
2023/08/29 14:07:16;;;;;;;16.27;2.40;;;;;;;;;;5015897;28;20716;-76
2023/08/29 14:09:43;;;;;;;14.00;2.30;;;;;;;;;;4974404;28;20453;-78
2023/08/29 14:12:10;;;;;;;13.80;2.20;;;;;;;;;;4983526;28;20448;-76
2023/08/29 14:14:36;;;;;;;13.83;2.40;;;;;;;;;;4986267;28;20489;-78
2023/08/29 14:17:04;;;;;;;13.73;2.13;;;;;;;;;;4985107;28;20449;-78
2023/08/29 14:19:31;;;;;;;13.93;2.00;;;;;;;;;;4993977;28;20413;-77
2023/08/29 14:21:59;;;;;;;14.37;1.90;;;;;;;;;;5020525;28;21070;-78
2023/08/29 14:24:29;;;;;;;14.50;1.90;;;;;;;;;;4989243;28;20439;-75
2023/08/29 14:26:56;;;;;;;13.50;1.90;;;;;;;;;;4987927;28;20413;-77
2023/08/29 14:29:22;;;;;;;13.50;2.20;;;;;;;;;;4993219;28;20476;-79
2023/08/29 14:31:49;;;;;;;;;;;;;;;;;;5004036;28;20647;-77